createdAt,value
2019-05-04T00:04:29.592Z,0
2019-05-04T00:09:36.526Z,0
2019-05-04T00:14:42.190Z,0
2019-05-04T00:19:49.340Z,0
2019-05-04T00:24:55.819Z,0
2019-05-04T00:30:01.208Z,0
2019-05-04T00:35:06.881Z,0
2019-05-04T00:40:11.998Z,0
2019-05-04T00:45:18.174Z,0
2019-05-04T00:50:24.929Z,0
2019-05-04T00:55:30.477Z,0
2019-05-04T01:00:36.108Z,0
2019-05-04T01:05:41.774Z,0
2019-05-04T01:10:49.260Z,0
2019-05-04T01:15:55.996Z,0
2019-05-04T01:21:01.373Z,0
2019-05-04T01:26:09.560Z,0
2019-05-04T01:31:16.832Z,0
2019-05-04T01:36:21.937Z,0
2019-05-04T01:41:29.219Z,0
2019-05-04T01:46:36.346Z,0
2019-05-04T01:51:41.730Z,0
2019-05-04T01:56:46.543Z,0
2019-05-04T02:01:51.369Z,0
2019-05-04T02:06:58.101Z,0
2019-05-04T02:12:05.684Z,0
2019-05-04T02:17:10.780Z,0
2019-05-04T02:22:16.218Z,0
2019-05-04T02:27:21.880Z,0
2019-05-04T02:32:29.277Z,0
2019-05-04T02:37:37.555Z,0
2019-05-04T02:42:45.645Z,0
2019-05-04T02:47:50.590Z,0
2019-05-04T02:52:57.800Z,0
2019-05-04T02:58:05.650Z,0
2019-05-04T03:03:10.594Z,0
2019-05-04T03:08:39.324Z,0
2019-05-04T03:13:47.666Z,0
2019-05-04T03:18:55.810Z,0
2019-05-04T03:24:01.163Z,0
2019-05-04T03:29:06.807Z,0
2019-05-04T03:35:41.157Z,0
2019-05-04T03:41:17.434Z,0
2019-05-04T03:46:26.033Z,0
2019-05-04T03:51:31.658Z,0
2019-05-04T03:56:39.351Z,1
2019-05-04T04:01:46.623Z,2
2019-05-04T04:06:51.725Z,1
2019-05-04T04:12:00.003Z,1
2019-05-04T04:17:08.017Z,0
2019-05-04T04:22:16.006Z,1
2019-05-04T04:27:21.572Z,0
2019-05-04T04:32:29.511Z,1
2019-05-04T04:37:37.544Z,3
2019-05-04T04:42:45.567Z,6
2019-05-04T04:47:51.236Z,6
2019-05-04T04:52:59.122Z,6
2019-05-04T04:58:06.707Z,5
2019-05-04T05:03:12.367Z,5
2019-05-04T05:08:20.356Z,6
2019-05-04T05:13:26.667Z,6
2019-05-04T05:18:32.049Z,5
2019-05-04T05:23:39.494Z,8
2019-05-04T05:28:46.724Z,8
2019-05-04T05:33:52.099Z,6
2019-05-04T05:38:58.866Z,9
2019-05-04T05:44:06.377Z,11
2019-05-04T05:49:19.921Z,16
2019-05-04T05:54:42.251Z,6
2019-05-04T05:59:54.618Z,8
2019-05-04T06:05:14.733Z,6
2019-05-04T06:10:31.361Z,8
2019-05-04T06:15:40.425Z,8
2019-05-04T06:20:58.535Z,11
2019-05-04T06:26:08.087Z,15
2019-05-04T06:31:16.038Z,12
2019-05-04T06:36:21.427Z,17
2019-05-04T06:41:37.877Z,20
2019-05-04T06:46:44.977Z,28
2019-05-04T06:51:50.286Z,15
2019-05-04T06:56:56.372Z,20
2019-05-04T07:02:04.123Z,16
2019-05-04T07:07:26.510Z,26
2019-05-04T07:12:32.068Z,43
2019-05-04T07:17:38.904Z,55
2019-05-04T07:22:45.845Z,89
2019-05-04T07:27:59.094Z,126
2019-05-04T07:33:17.855Z,149
2019-05-04T07:38:25.125Z,18
2019-05-04T07:43:39.679Z,169
2019-05-04T07:48:55.047Z,101
2019-05-04T07:54:00.651Z,26
2019-05-04T07:59:06.368Z,37
2019-05-04T08:04:14.072Z,39
2019-05-04T08:09:24.835Z,23
2019-05-04T08:14:33.151Z,148
2019-05-04T08:19:49.087Z,141
2019-05-04T08:24:55.461Z,30
2019-05-04T08:30:11.323Z,134
2019-05-04T08:35:31.988Z,131
2019-05-04T08:40:38.981Z,39
2019-05-04T08:45:55.274Z,30
2019-05-04T08:51:04.763Z,15
2019-05-04T08:56:25.557Z,14
2019-05-04T09:01:30.281Z,9
2019-05-04T09:06:39.743Z,13
2019-05-04T09:11:59.427Z,14
2019-05-04T09:17:19.797Z,71
2019-05-04T09:22:31.341Z,101
2019-05-04T09:27:36.483Z,103
2019-05-04T09:32:41.627Z,40
2019-05-04T09:37:59.129Z,38
2019-05-04T09:43:27.203Z,38
2019-05-04T09:48:50.222Z,96
2019-05-04T09:53:56.405Z,28
2019-05-04T09:59:09.462Z,94
2019-05-04T10:04:16.535Z,23
2019-05-04T10:09:21.400Z,43
2019-05-04T10:14:26.548Z,52
2019-05-04T10:19:31.703Z,18
2019-05-04T10:24:39.315Z,7
2019-05-04T10:29:46.323Z,35
2019-05-04T10:34:51.754Z,27
2019-05-04T10:39:59.179Z,43
2019-05-04T10:45:06.441Z,20
2019-05-04T10:50:14.484Z,12
2019-05-04T10:55:19.682Z,14
2019-05-04T11:00:26.586Z,18
2019-05-04T11:05:32.025Z,51
2019-05-04T11:10:39.923Z,51
2019-05-04T11:15:46.284Z,23
2019-05-04T11:20:51.158Z,25
2019-05-04T11:25:57.650Z,24
2019-05-04T11:31:02.799Z,20
2019-05-04T11:36:09.937Z,21
2019-05-04T11:41:15.951Z,49
2019-05-04T11:46:22.195Z,66
2019-05-04T11:51:28.888Z,61
2019-05-04T11:56:36.253Z,62
2019-05-04T12:01:41.413Z,66
2019-05-04T12:06:48.265Z,25
2019-05-04T12:11:55.164Z,64
2019-05-04T12:17:00.600Z,69
2019-05-04T12:22:06.470Z,68
2019-05-04T12:27:11.355Z,69
2019-05-04T12:32:24.377Z,74
2019-05-04T12:37:29.547Z,73
2019-05-04T12:42:35.710Z,14
2019-05-04T12:47:41.148Z,14
2019-05-04T12:52:46.850Z,17
2019-05-04T12:57:52.008Z,82
2019-05-04T13:02:59.631Z,84
2019-05-04T13:08:05.356Z,20
2019-05-04T13:13:10.805Z,26
2019-05-04T13:18:16.673Z,86
2019-05-04T13:23:21.836Z,90
2019-05-04T13:28:28.969Z,39
2019-05-04T13:33:35.980Z,13
2019-05-04T13:38:41.148Z,19
2019-05-04T13:43:47.471Z,22
2019-05-04T13:48:55.199Z,20
2019-05-04T13:54:00.482Z,20
2019-05-04T13:59:06.932Z,28
2019-05-04T14:04:12.096Z,60
2019-05-04T14:09:19.195Z,79
2019-05-04T14:14:26.613Z,80
2019-05-04T14:19:32.048Z,27
2019-05-04T14:24:38.825Z,31
2019-05-04T14:29:43.994Z,79
2019-05-04T14:34:48.881Z,82
2019-05-04T14:39:58.044Z,78
2019-05-04T14:45:06.163Z,75
2019-05-04T14:50:11.601Z,54
2019-05-04T14:55:16.205Z,15
2019-05-04T15:00:21.639Z,10
2019-05-04T15:05:28.589Z,9
2019-05-04T15:10:36.280Z,10
2019-05-04T15:15:41.716Z,10
2019-05-04T15:20:48.817Z,15
2019-05-04T15:25:56.275Z,35
2019-05-04T15:31:01.702Z,41
2019-05-04T15:36:08.588Z,12
2019-05-04T15:41:15.669Z,7
2019-05-04T15:46:21.375Z,7
2019-05-04T15:51:28.657Z,6
2019-05-04T15:56:35.794Z,6
2019-05-04T16:01:41.224Z,5
2019-05-04T16:06:46.560Z,7
2019-05-04T16:11:51.697Z,24
2019-05-04T16:16:58.646Z,29
2019-05-04T16:22:07.827Z,26
2019-05-04T16:27:14.968Z,16
2019-05-04T16:32:19.855Z,8
2019-05-04T16:37:26.297Z,9
2019-05-04T16:42:31.999Z,11
2019-05-04T16:47:38.887Z,17
2019-05-04T16:52:46.207Z,37
2019-05-04T16:57:51.699Z,34
2019-05-04T17:03:00.015Z,32
2019-05-04T17:08:07.158Z,33
2019-05-04T17:13:14.454Z,33
2019-05-04T17:18:19.999Z,29
2019-05-04T17:23:27.537Z,24
2019-05-04T17:28:34.882Z,22
2019-05-04T17:33:40.434Z,19
2019-05-04T17:38:46.705Z,18
2019-05-04T17:43:51.904Z,16
2019-05-04T17:48:58.946Z,6
2019-05-04T17:54:06.401Z,6
2019-05-04T17:59:11.547Z,11
2019-05-04T18:04:16.706Z,8
2019-05-04T18:09:22.401Z,5
2019-05-04T18:14:29.288Z,3
2019-05-04T18:19:34.701Z,2
2019-05-04T18:24:40.397Z,1
2019-05-04T18:29:45.932Z,2
2019-05-04T18:34:50.795Z,1
2019-05-04T18:39:56.204Z,1
2019-05-04T18:45:01.357Z,1
2019-05-04T18:50:09.035Z,1
2019-05-04T18:55:16.121Z,0
2019-05-04T19:00:20.975Z,0
2019-05-04T19:05:26.386Z,0
2019-05-04T19:10:31.238Z,0
2019-05-04T19:15:38.020Z,0
2019-05-04T19:20:46.380Z,0
2019-05-04T19:25:51.407Z,0
2019-05-04T19:30:57.635Z,0
2019-05-04T19:36:03.037Z,0
2019-05-04T19:41:10.580Z,0
2019-05-04T19:46:16.416Z,0
2019-05-04T19:51:21.267Z,0
2019-05-04T19:56:26.943Z,0
2019-05-04T20:01:31.510Z,0
2019-05-04T20:06:38.670Z,0
2019-05-04T20:11:48.339Z,0
2019-05-04T20:16:55.726Z,0
2019-05-04T20:22:00.571Z,0
2019-05-04T20:27:10.364Z,0
2019-05-04T20:32:16.847Z,0
2019-05-04T20:37:21.699Z,0
2019-05-04T20:42:28.199Z,0
2019-05-04T20:47:33.390Z,0
2019-05-04T20:52:56.103Z,0
2019-05-04T20:58:00.670Z,0
2019-05-04T21:03:06.399Z,0
2019-05-04T21:08:11.534Z,0
2019-05-04T21:13:17.656Z,0
2019-05-04T21:18:22.498Z,0
2019-05-04T21:23:28.887Z,0
2019-05-04T21:28:37.186Z,0
2019-05-04T21:33:41.745Z,0
2019-05-04T21:38:47.845Z,0
2019-05-04T21:43:52.692Z,0
2019-05-04T21:48:59.180Z,0
2019-05-04T21:54:05.800Z,0
2019-05-04T21:59:10.912Z,0
2019-05-04T22:04:16.304Z,0
2019-05-04T22:09:21.434Z,0
2019-05-04T22:14:28.957Z,0
2019-05-04T22:19:33.519Z,0
2019-05-04T22:24:38.914Z,0
2019-05-04T22:29:44.309Z,0
2019-05-04T22:34:49.150Z,0
2019-05-04T22:39:54.263Z,0
2019-05-04T22:44:58.550Z,0
2019-05-04T22:50:04.740Z,0
2019-05-04T22:55:09.575Z,0
2019-05-04T23:00:16.061Z,0
2019-05-04T23:05:21.458Z,0
2019-05-04T23:10:28.863Z,0
2019-05-04T23:15:34.958Z,0
2019-05-04T23:20:39.737Z,0
2019-05-04T23:25:46.421Z,0
2019-05-04T23:30:51.255Z,0
2019-05-04T23:35:57.474Z,0
2019-05-04T23:41:02.023Z,0
2019-05-04T23:46:08.910Z,0
2019-05-04T23:51:17.617Z,0
2019-05-04T23:56:25.031Z,0
